sensor_id;sensor_type;location;lat;lon;timestamp;P1;durP1;ratioP1;P2;durP2;ratioP2
63406;SDS011;49543;45.892;10.838;2023-07-02T04:47:51;8.68;;;7.97;;
63406;SDS011;49543;45.892;10.838;2023-07-02T04:50:17;8.48;;;7.78;;
63406;SDS011;49543;45.892;10.838;2023-07-02T04:52:44;8.68;;;7.90;;
63406;SDS011;49543;45.892;10.838;2023-07-02T04:55:09;8.45;;;7.65;;
63406;SDS011;49543;45.892;10.838;2023-07-02T04:57:35;8.32;;;7.63;;
63406;SDS011;49543;45.892;10.838;2023-07-02T05:00:01;9.05;;;8.25;;
63406;SDS011;49543;45.892;10.838;2023-07-02T05:02:28;8.18;;;7.47;;
63406;SDS011;49543;45.892;10.838;2023-07-02T05:04:54;8.20;;;7.50;;
63406;SDS011;49543;45.892;10.838;2023-07-02T05:07:19;8.48;;;7.78;;
63406;SDS011;49543;45.892;10.838;2023-07-02T05:09:45;8.02;;;7.32;;
63406;SDS011;49543;45.892;10.838;2023-07-02T05:12:10;9.38;;;8.48;;
63406;SDS011;49543;45.892;10.838;2023-07-02T05:14:36;7.95;;;7.25;;
63406;SDS011;49543;45.892;10.838;2023-07-02T05:17:03;8.90;;;8.00;;
63406;SDS011;49543;45.892;10.838;2023-07-02T05:19:28;8.25;;;7.45;;
63406;SDS011;49543;45.892;10.838;2023-07-02T05:21:54;9.07;;;8.30;;
63406;SDS011;49543;45.892;10.838;2023-07-02T05:24:19;8.77;;;8.07;;
63406;SDS011;49543;45.892;10.838;2023-07-02T05:26:44;8.80;;;8.10;;
63406;SDS011;49543;45.892;10.838;2023-07-02T05:29:10;8.90;;;8.00;;
63406;SDS011;49543;45.892;10.838;2023-07-02T05:31:35;9.27;;;8.43;;
63406;SDS011;49543;45.892;10.838;2023-07-02T05:34:01;9.20;;;8.40;;
63406;SDS011;49543;45.892;10.838;2023-07-02T05:36:27;8.63;;;7.80;;
63406;SDS011;49543;45.892;10.838;2023-07-02T05:38:52;8.30;;;7.57;;
63406;SDS011;49543;45.892;10.838;2023-07-02T05:41:21;8.75;;;7.95;;
63406;SDS011;49543;45.892;10.838;2023-07-02T05:43:47;8.50;;;7.80;;
63406;SDS011;49543;45.892;10.838;2023-07-02T05:46:13;9.40;;;8.40;;
63406;SDS011;49543;45.892;10.838;2023-07-02T05:48:40;9.85;;;9.05;;
63406;SDS011;49543;45.892;10.838;2023-07-02T05:51:06;9.82;;;8.95;;
63406;SDS011;49543;45.892;10.838;2023-07-02T05:53:32;9.55;;;8.65;;
63406;SDS011;49543;45.892;10.838;2023-07-02T05:55:57;10.32;;;9.40;;
63406;SDS011;49543;45.892;10.838;2023-07-02T05:58:23;10.48;;;9.57;;
63406;SDS011;49543;45.892;10.838;2023-07-02T06:00:48;10.15;;;9.25;;
63406;SDS011;49543;45.892;10.838;2023-07-02T06:03:17;10.63;;;9.73;;
63406;SDS011;49543;45.892;10.838;2023-07-02T06:05:48;10.65;;;9.70;;
63406;SDS011;49543;45.892;10.838;2023-07-02T06:10:40;10.60;;;9.60;;
63406;SDS011;49543;45.892;10.838;2023-07-02T06:13:06;10.30;;;9.40;;
63406;SDS011;49543;45.892;10.838;2023-07-02T06:15:31;10.60;;;9.70;;
63406;SDS011;49543;45.892;10.838;2023-07-02T06:17:56;10.52;;;9.63;;
63406;SDS011;49543;45.892;10.838;2023-07-02T06:20:22;11.30;;;10.20;;
63406;SDS011;49543;45.892;10.838;2023-07-02T08:42:24;20.27;;;18.27;;
63406;SDS011;49543;45.892;10.838;2023-07-02T08:44:54;22.38;;;20.23;;
63406;SDS011;49543;45.892;10.838;2023-07-02T08:47:22;21.33;;;19.27;;
63406;SDS011;49543;45.892;10.838;2023-07-02T08:49:48;20.77;;;18.77;;
63406;SDS011;49543;45.892;10.838;2023-07-02T08:52:14;23.23;;;20.83;;
63406;SDS011;49543;45.892;10.838;2023-07-02T08:54:40;19.23;;;17.25;;
63406;SDS011;49543;45.892;10.838;2023-07-02T08:57:08;19.00;;;17.05;;
63406;SDS011;49543;45.892;10.838;2023-07-02T08:59:35;22.98;;;20.67;;
63406;SDS011;49543;45.892;10.838;2023-07-02T09:02:01;18.52;;;16.63;;
63406;SDS011;49543;45.892;10.838;2023-07-02T09:04:27;23.05;;;20.75;;
63406;SDS011;49543;45.892;10.838;2023-07-02T09:07:05;21.63;;;19.52;;
63406;SDS011;49543;45.892;10.838;2023-07-02T09:09:31;24.13;;;20.23;;
63406;SDS011;49543;45.892;10.838;2023-07-02T09:11:56;19.88;;;17.98;;
63406;SDS011;49543;45.892;10.838;2023-07-02T09:14:29;17.73;;;15.85;;
63406;SDS011;49543;45.892;10.838;2023-07-02T09:17:06;20.77;;;18.73;;
63406;SDS011;49543;45.892;10.838;2023-07-02T09:19:36;20.45;;;18.27;;
63406;SDS011;49543;45.892;10.838;2023-07-02T09:22:02;19.23;;;17.23;;
63406;SDS011;49543;45.892;10.838;2023-07-02T09:24:29;19.35;;;17.45;;
63406;SDS011;49543;45.892;10.838;2023-07-02T09:26:57;23.40;;;20.50;;
63406;SDS011;49543;45.892;10.838;2023-07-02T09:29:25;20.90;;;18.80;;
63406;SDS011;49543;45.892;10.838;2023-07-02T09:31:55;23.40;;;21.02;;
63406;SDS011;49543;45.892;10.838;2023-07-02T09:36:57;26.88;;;24.08;;
63406;SDS011;49543;45.892;10.838;2023-07-02T09:39:28;27.95;;;25.00;;
63406;SDS011;49543;45.892;10.838;2023-07-02T09:41:55;29.35;;;26.15;;
63406;SDS011;49543;45.892;10.838;2023-07-02T09:44:25;29.35;;;26.25;;
63406;SDS011;49543;45.892;10.838;2023-07-02T09:47:14;30.25;;;27.05;;
63406;SDS011;49543;45.892;10.838;2023-07-02T09:49:59;27.95;;;24.88;;
63406;SDS011;49543;45.892;10.838;2023-07-02T09:52:28;25.35;;;22.45;;
63406;SDS011;49543;45.892;10.838;2023-07-02T09:54:54;23.17;;;20.67;;
63406;SDS011;49543;45.892;10.838;2023-07-02T09:57:20;29.98;;;23.98;;
63406;SDS011;49543;45.892;10.838;2023-07-02T09:59:45;23.13;;;20.63;;
63406;SDS011;49543;45.892;10.838;2023-07-02T10:02:12;23.33;;;20.48;;
63406;SDS011;49543;45.892;10.838;2023-07-02T10:04:44;23.23;;;20.83;;
63406;SDS011;49543;45.892;10.838;2023-07-02T10:07:11;21.42;;;19.23;;
63406;SDS011;49543;45.892;10.838;2023-07-02T10:09:38;21.73;;;19.63;;
63406;SDS011;49543;45.892;10.838;2023-07-02T10:12:24;20.95;;;18.77;;
63406;SDS011;49543;45.892;10.838;2023-07-02T10:14:51;20.35;;;18.17;;
63406;SDS011;49543;45.892;10.838;2023-07-02T10:19:58;18.75;;;16.85;;
63406;SDS011;49543;45.892;10.838;2023-07-02T10:22:26;19.37;;;17.53;;
63406;SDS011;49543;45.892;10.838;2023-07-02T10:24:56;20.85;;;18.60;;
63406;SDS011;49543;45.892;10.838;2023-07-02T10:27:40;22.17;;;19.95;;
63406;SDS011;49543;45.892;10.838;2023-07-02T10:30:07;20.42;;;18.50;;
63406;SDS011;49543;45.892;10.838;2023-07-02T10:32:34;17.70;;;15.90;;
63406;SDS011;49543;45.892;10.838;2023-07-02T10:35:01;21.67;;;19.30;;
63406;SDS011;49543;45.892;10.838;2023-07-02T10:37:37;18.65;;;16.67;;
63406;SDS011;49543;45.892;10.838;2023-07-02T10:40:04;23.30;;;20.80;;
63406;SDS011;49543;45.892;10.838;2023-07-02T10:42:31;22.47;;;20.10;;
63406;SDS011;49543;45.892;10.838;2023-07-02T10:44:59;21.48;;;19.15;;
63406;SDS011;49543;45.892;10.838;2023-07-02T10:47:24;22.52;;;19.50;;
63406;SDS011;49543;45.892;10.838;2023-07-02T10:49:50;19.65;;;17.23;;
63406;SDS011;49543;45.892;10.838;2023-07-02T10:52:15;19.33;;;17.05;;
63406;SDS011;49543;45.892;10.838;2023-07-02T10:54:42;23.52;;;21.13;;
63406;SDS011;49543;45.892;10.838;2023-07-02T10:57:09;25.00;;;22.38;;
63406;SDS011;49543;45.892;10.838;2023-07-02T10:59:35;20.35;;;18.15;;
63406;SDS011;49543;45.892;10.838;2023-07-02T11:02:01;23.30;;;20.15;;
63406;SDS011;49543;45.892;10.838;2023-07-02T11:04:28;20.52;;;18.42;;
63406;SDS011;49543;45.892;10.838;2023-07-02T11:06:55;21.20;;;19.00;;
63406;SDS011;49543;45.892;10.838;2023-07-02T11:09:21;22.65;;;20.38;;
63406;SDS011;49543;45.892;10.838;2023-07-02T11:11:54;17.02;;;15.45;;
63406;SDS011;49543;45.892;10.838;2023-07-02T11:14:36;18.58;;;15.55;;
63406;SDS011;49543;45.892;10.838;2023-07-02T11:17:02;13.23;;;11.95;;
63406;SDS011;49543;45.892;10.838;2023-07-02T11:19:30;12.77;;;11.60;;
63406;SDS011;49543;45.892;10.838;2023-07-02T11:21:57;12.48;;;11.27;;
63406;SDS011;49543;45.892;10.838;2023-07-02T11:24:30;13.63;;;11.35;;
63406;SDS011;49543;45.892;10.838;2023-07-02T11:26:56;13.32;;;12.13;;
63406;SDS011;49543;45.892;10.838;2023-07-02T11:29:22;16.13;;;14.52;;
63406;SDS011;49543;45.892;10.838;2023-07-02T11:31:48;12.18;;;11.00;;
63406;SDS011;49543;45.892;10.838;2023-07-02T11:34:17;13.23;;;12.00;;
63406;SDS011;49543;45.892;10.838;2023-07-02T11:36:45;13.90;;;12.45;;
63406;SDS011;49543;45.892;10.838;2023-07-02T11:39:11;17.10;;;15.32;;
63406;SDS011;49543;45.892;10.838;2023-07-02T11:41:49;14.93;;;13.43;;
63406;SDS011;49543;45.892;10.838;2023-07-02T11:44:18;14.18;;;12.73;;
63406;SDS011;49543;45.892;10.838;2023-07-02T11:46:44;14.43;;;13.02;;
63406;SDS011;49543;45.892;10.838;2023-07-02T11:49:09;12.18;;;10.98;;
63406;SDS011;49543;45.892;10.838;2023-07-02T11:51:35;16.15;;;14.45;;
63406;SDS011;49543;45.892;10.838;2023-07-02T11:54:04;10.45;;;9.35;;
63406;SDS011;49543;45.892;10.838;2023-07-02T11:56:30;10.77;;;9.70;;
63406;SDS011;49543;45.892;10.838;2023-07-02T11:58:56;10.82;;;9.73;;
63406;SDS011;49543;45.892;10.838;2023-07-02T12:01:24;10.07;;;9.18;;
63406;SDS011;49543;45.892;10.838;2023-07-02T12:03:49;12.82;;;11.57;;
63406;SDS011;49543;45.892;10.838;2023-07-02T12:06:15;10.40;;;9.45;;
63406;SDS011;49543;45.892;10.838;2023-07-02T12:08:40;9.90;;;8.90;;
63406;SDS011;49543;45.892;10.838;2023-07-02T12:11:06;10.60;;;9.50;;
63406;SDS011;49543;45.892;10.838;2023-07-02T12:13:32;14.10;;;12.80;;
63406;SDS011;49543;45.892;10.838;2023-07-02T12:15:57;10.75;;;9.75;;
63406;SDS011;49543;45.892;10.838;2023-07-02T12:18:23;11.55;;;10.55;;
63406;SDS011;49543;45.892;10.838;2023-07-02T12:20:48;13.98;;;12.65;;
63406;SDS011;49543;45.892;10.838;2023-07-02T12:23:14;10.43;;;9.48;;
63406;SDS011;49543;45.892;10.838;2023-07-02T12:25:39;9.98;;;9.07;;
63406;SDS011;49543;45.892;10.838;2023-07-02T12:28:05;9.68;;;8.68;;
63406;SDS011;49543;45.892;10.838;2023-07-02T12:30:31;12.90;;;11.60;;
63406;SDS011;49543;45.892;10.838;2023-07-02T12:32:57;10.30;;;9.30;;
63406;SDS011;49543;45.892;10.838;2023-07-02T12:35:22;9.32;;;8.43;;
63406;SDS011;49543;45.892;10.838;2023-07-02T12:37:48;10.30;;;9.30;;
63406;SDS011;49543;45.892;10.838;2023-07-02T12:40:15;11.85;;;9.60;;
63406;SDS011;49543;45.892;10.838;2023-07-02T12:42:42;10.48;;;9.57;;
63406;SDS011;49543;45.892;10.838;2023-07-02T12:45:08;9.02;;;8.23;;
63406;SDS011;49543;45.892;10.838;2023-07-02T12:47:34;11.25;;;10.15;;
63406;SDS011;49543;45.892;10.838;2023-07-02T12:49:59;9.68;;;8.88;;
63406;SDS011;49543;45.892;10.838;2023-07-02T12:52:25;9.88;;;8.95;;
63406;SDS011;49543;45.892;10.838;2023-07-02T12:54:50;9.07;;;8.27;;
63406;SDS011;49543;45.892;10.838;2023-07-02T12:57:17;10.45;;;9.52;;
63406;SDS011;49543;45.892;10.838;2023-07-02T12:59:43;9.10;;;8.30;;
63406;SDS011;49543;45.892;10.838;2023-07-02T13:02:09;11.13;;;10.02;;
63406;SDS011;49543;45.892;10.838;2023-07-02T13:04:35;12.75;;;11.48;;
63406;SDS011;49543;45.892;10.838;2023-07-02T13:07:01;11.70;;;10.35;;
63406;SDS011;49543;45.892;10.838;2023-07-02T13:09:27;11.70;;;10.50;;
63406;SDS011;49543;45.892;10.838;2023-07-02T13:11:52;12.27;;;11.07;;
63406;SDS011;49543;45.892;10.838;2023-07-02T13:14:17;10.95;;;9.95;;
63406;SDS011;49543;45.892;10.838;2023-07-02T13:16:43;11.18;;;10.07;;
63406;SDS011;49543;45.892;10.838;2023-07-02T13:19:08;12.07;;;11.05;;
63406;SDS011;49543;45.892;10.838;2023-07-02T13:21:34;11.88;;;10.77;;
63406;SDS011;49543;45.892;10.838;2023-07-02T13:23:59;10.63;;;9.63;;
63406;SDS011;49543;45.892;10.838;2023-07-02T13:26:25;13.57;;;12.27;;
63406;SDS011;49543;45.892;10.838;2023-07-02T13:28:50;11.57;;;10.48;;
63406;SDS011;49543;45.892;10.838;2023-07-02T13:31:16;10.93;;;9.45;;
63406;SDS011;49543;45.892;10.838;2023-07-02T13:33:42;17.10;;;15.45;;
63406;SDS011;49543;45.892;10.838;2023-07-02T13:36:07;13.68;;;12.27;;
63406;SDS011;49543;45.892;10.838;2023-07-02T13:38:33;14.98;;;12.98;;
63406;SDS011;49543;45.892;10.838;2023-07-02T13:40:59;15.02;;;13.32;;
63406;SDS011;49543;45.892;10.838;2023-07-02T13:43:25;15.18;;;13.68;;
63406;SDS011;49543;45.892;10.838;2023-07-02T13:45:51;17.95;;;14.20;;
63406;SDS011;49543;45.892;10.838;2023-07-02T13:48:17;15.73;;;14.15;;
63406;SDS011;49543;45.892;10.838;2023-07-02T13:50:42;15.55;;;13.85;;
63406;SDS011;49543;45.892;10.838;2023-07-02T13:53:08;13.73;;;12.35;;
63406;SDS011;49543;45.892;10.838;2023-07-02T13:55:34;11.80;;;9.57;;
63406;SDS011;49543;45.892;10.838;2023-07-02T13:57:59;14.43;;;12.80;;
63406;SDS011;49543;45.892;10.838;2023-07-02T14:00:29;12.40;;;11.20;;
63406;SDS011;49543;45.892;10.838;2023-07-02T14:05:20;12.32;;;11.13;;
63406;SDS011;49543;45.892;10.838;2023-07-02T14:07:46;13.85;;;12.05;;
63406;SDS011;49543;45.892;10.838;2023-07-02T20:35:57;10.13;;;9.18;;
63406;SDS011;49543;45.892;10.838;2023-07-02T20:38:23;9.25;;;8.35;;
63406;SDS011;49543;45.892;10.838;2023-07-02T20:40:57;9.60;;;8.70;;
63406;SDS011;49543;45.892;10.838;2023-07-02T20:43:30;9.45;;;8.65;;
63406;SDS011;49543;45.892;10.838;2023-07-02T20:45:58;9.27;;;8.48;;
63406;SDS011;49543;45.892;10.838;2023-07-02T20:48:26;9.32;;;8.52;;
63406;SDS011;49543;45.892;10.838;2023-07-02T20:50:52;9.38;;;8.57;;
63406;SDS011;49543;45.892;10.838;2023-07-02T20:53:18;9.20;;;8.40;;
63406;SDS011;49543;45.892;10.838;2023-07-02T20:55:51;8.80;;;8.05;;
63406;SDS011;49543;45.892;10.838;2023-07-02T20:58:18;10.93;;;9.82;;
63406;SDS011;49543;45.892;10.838;2023-07-02T21:00:44;9.75;;;8.85;;
63406;SDS011;49543;45.892;10.838;2023-07-02T21:03:09;9.48;;;8.68;;
63406;SDS011;49543;45.892;10.838;2023-07-02T21:05:35;9.50;;;8.63;;
63406;SDS011;49543;45.892;10.838;2023-07-02T21:08:01;8.73;;;8.02;;
63406;SDS011;49543;45.892;10.838;2023-07-02T21:10:27;9.88;;;8.98;;
63406;SDS011;49543;45.892;10.838;2023-07-02T21:12:52;10.65;;;9.75;;
63406;SDS011;49543;45.892;10.838;2023-07-02T21:15:18;9.43;;;8.52;;
63406;SDS011;49543;45.892;10.838;2023-07-02T21:17:47;9.75;;;8.85;;
63406;SDS011;49543;45.892;10.838;2023-07-02T21:20:13;9.70;;;8.75;;
63406;SDS011;49543;45.892;10.838;2023-07-02T21:22:38;9.38;;;8.63;;
63406;SDS011;49543;45.892;10.838;2023-07-02T21:25:04;9.38;;;8.48;;
63406;SDS011;49543;45.892;10.838;2023-07-02T21:27:30;10.48;;;9.52;;
63406;SDS011;49543;45.892;10.838;2023-07-02T21:29:55;10.30;;;9.13;;
63406;SDS011;49543;45.892;10.838;2023-07-02T21:32:21;9.95;;;9.15;;
63406;SDS011;49543;45.892;10.838;2023-07-02T21:34:47;9.75;;;8.85;;
63406;SDS011;49543;45.892;10.838;2023-07-02T21:37:12;9.10;;;8.20;;
63406;SDS011;49543;45.892;10.838;2023-07-02T21:39:38;10.05;;;9.25;;
63406;SDS011;49543;45.892;10.838;2023-07-02T21:42:03;9.38;;;8.57;;
63406;SDS011;49543;45.892;10.838;2023-07-02T21:44:29;9.98;;;9.07;;
63406;SDS011;49543;45.892;10.838;2023-07-02T21:46:54;8.90;;;8.00;;
63406;SDS011;49543;45.892;10.838;2023-07-02T21:49:19;10.15;;;9.25;;
63406;SDS011;49543;45.892;10.838;2023-07-02T21:51:45;9.13;;;8.35;;
63406;SDS011;49543;45.892;10.838;2023-07-02T21:54:10;8.77;;;7.97;;
63406;SDS011;49543;45.892;10.838;2023-07-02T21:56:36;9.77;;;8.98;;
